Aviation Digital Data Service (ADDS)

Output produced by METARs form (1854 UTC 25 September 2017)
found at http://aviationweather.gov/adds/metars/
 
KRDU 251720Z 2518/2618 05011KT P6SM SCT040 
     FM252300 05008KT P6SM SCT250 
     FM260800 02007KT P6SM BKN010 
     FM261500 01010KT P6SM BKN025